sensor_id;sensor_type;location;lat;lon;timestamp;temperature;humidity
6664;DHT22;58749;48.022;10.922;2022-12-18T00:00:06;0.00;99.90
6664;DHT22;58749;48.022;10.922;2022-12-18T00:02:37;-0.10;99.90
6664;DHT22;58749;48.022;10.922;2022-12-18T00:05:06;0.00;99.90
6664;DHT22;58749;48.022;10.922;2022-12-18T00:07:36;0.00;99.90
6664;DHT22;58749;48.022;10.922;2022-12-18T00:10:05;-0.10;99.90
6664;DHT22;58749;48.022;10.922;2022-12-18T00:12:33;-0.10;99.90
6664;DHT22;58749;48.022;10.922;2022-12-18T00:15:02;-0.30;99.90
6664;DHT22;58749;48.022;10.922;2022-12-18T00:17:30;-0.20;99.90
6664;DHT22;58749;48.022;10.922;2022-12-18T00:19:58;-0.30;99.90
6664;DHT22;58749;48.022;10.922;2022-12-18T00:22:26;-0.30;99.90
6664;DHT22;58749;48.022;10.922;2022-12-18T00:24:56;-0.20;99.90
6664;DHT22;58749;48.022;10.922;2022-12-18T00:27:24;-0.10;99.90
6664;DHT22;58749;48.022;10.922;2022-12-18T00:29:52;-0.10;99.90
6664;DHT22;58749;48.022;10.922;2022-12-18T00:32:20;-0.10;99.90
6664;DHT22;58749;48.022;10.922;2022-12-18T00:34:48;0.00;99.90
6664;DHT22;58749;48.022;10.922;2022-12-18T00:37:16;0.00;99.90
6664;DHT22;58749;48.022;10.922;2022-12-18T00:39:48;0.00;99.90
6664;DHT22;58749;48.022;10.922;2022-12-18T00:42:18;0.00;99.90
6664;DHT22;58749;48.022;10.922;2022-12-18T00:45:03;-0.20;99.90
6664;DHT22;58749;48.022;10.922;2022-12-18T00:47:38;-0.20;99.90
6664;DHT22;58749;48.022;10.922;2022-12-18T00:50:08;-0.30;99.90
6664;DHT22;58749;48.022;10.922;2022-12-18T00:52:36;-0.30;99.90
6664;DHT22;58749;48.022;10.922;2022-12-18T00:55:04;-0.20;99.90
6664;DHT22;58749;48.022;10.922;2022-12-18T00:57:34;-0.20;99.90
6664;DHT22;58749;48.022;10.922;2022-12-18T01:00:03;-0.20;99.90
6664;DHT22;58749;48.022;10.922;2022-12-18T01:02:32;-0.20;99.90
6664;DHT22;58749;48.022;10.922;2022-12-18T01:05:00;-0.20;99.90
6664;DHT22;58749;48.022;10.922;2022-12-18T01:07:28;-0.30;99.90
6664;DHT22;58749;48.022;10.922;2022-12-18T01:09:56;-0.20;99.90
6664;DHT22;58749;48.022;10.922;2022-12-18T01:12:24;-0.20;99.90
6664;DHT22;58749;48.022;10.922;2022-12-18T01:14:53;-0.20;99.90
6664;DHT22;58749;48.022;10.922;2022-12-18T01:17:21;-0.10;99.90
6664;DHT22;58749;48.022;10.922;2022-12-18T01:19:49;-0.10;99.90
6664;DHT22;58749;48.022;10.922;2022-12-18T01:22:17;-0.10;99.90
6664;DHT22;58749;48.022;10.922;2022-12-18T01:24:45;-0.10;99.90
6664;DHT22;58749;48.022;10.922;2022-12-18T01:27:13;-0.10;99.90
6664;DHT22;58749;48.022;10.922;2022-12-18T01:29:41;0.00;99.90
6664;DHT22;58749;48.022;10.922;2022-12-18T01:32:10;0.00;99.90
6664;DHT22;58749;48.022;10.922;2022-12-18T01:34:39;0.00;99.90
6664;DHT22;58749;48.022;10.922;2022-12-18T01:37:07;0.00;99.90
6664;DHT22;58749;48.022;10.922;2022-12-18T01:39:35;-0.10;99.90
6664;DHT22;58749;48.022;10.922;2022-12-18T01:42:03;0.00;99.90
6664;DHT22;58749;48.022;10.922;2022-12-18T01:44:54;0.00;99.90
6664;DHT22;58749;48.022;10.922;2022-12-18T01:47:25;0.00;99.90
6664;DHT22;58749;48.022;10.922;2022-12-18T01:49:54;-0.10;99.90
6664;DHT22;58749;48.022;10.922;2022-12-18T01:52:25;-0.10;99.90
6664;DHT22;58749;48.022;10.922;2022-12-18T01:54:54;-0.20;99.90
6664;DHT22;58749;48.022;10.922;2022-12-18T01:57:23;0.10;99.90
6664;DHT22;58749;48.022;10.922;2022-12-18T01:59:53;0.20;99.90
6664;DHT22;58749;48.022;10.922;2022-12-18T02:02:26;0.20;99.90
6664;DHT22;58749;48.022;10.922;2022-12-18T02:04:55;0.30;99.90
6664;DHT22;58749;48.022;10.922;2022-12-18T02:07:29;0.30;99.90
6664;DHT22;58749;48.022;10.922;2022-12-18T02:10:02;0.20;99.90
6664;DHT22;58749;48.022;10.922;2022-12-18T02:12:40;0.20;99.90
6664;DHT22;58749;48.022;10.922;2022-12-18T02:15:15;0.20;99.90
6664;DHT22;58749;48.022;10.922;2022-12-18T02:17:49;0.10;99.90
6664;DHT22;58749;48.022;10.922;2022-12-18T02:20:25;0.10;99.90
6664;DHT22;58749;48.022;10.922;2022-12-18T02:23:04;0.10;99.90
6664;DHT22;58749;48.022;10.922;2022-12-18T02:28:45;0.10;99.90
6664;DHT22;58749;48.022;10.922;2022-12-18T02:31:16;0.10;99.90
6664;DHT22;58749;48.022;10.922;2022-12-18T02:33:46;0.20;99.90
6664;DHT22;58749;48.022;10.922;2022-12-18T02:36:16;0.30;99.90
6664;DHT22;58749;48.022;10.922;2022-12-18T02:38:46;0.30;99.90
6664;DHT22;58749;48.022;10.922;2022-12-18T02:41:15;0.20;99.90
6664;DHT22;58749;48.022;10.922;2022-12-18T02:43:47;0.30;99.90
6664;DHT22;58749;48.022;10.922;2022-12-18T02:46:32;0.30;99.90
6664;DHT22;58749;48.022;10.922;2022-12-18T02:49:12;0.40;99.90
6664;DHT22;58749;48.022;10.922;2022-12-18T02:51:49;0.20;99.90
6664;DHT22;58749;48.022;10.922;2022-12-18T02:54:24;0.10;99.90
6664;DHT22;58749;48.022;10.922;2022-12-18T02:56:55;0.10;99.90
6664;DHT22;58749;48.022;10.922;2022-12-18T02:59:33;0.20;99.90
6664;DHT22;58749;48.022;10.922;2022-12-18T03:02:10;0.30;99.90
6664;DHT22;58749;48.022;10.922;2022-12-18T03:04:45;0.20;99.90
6664;DHT22;58749;48.022;10.922;2022-12-18T03:07:18;0.20;99.90
6664;DHT22;58749;48.022;10.922;2022-12-18T03:09:50;0.30;99.90
6664;DHT22;58749;48.022;10.922;2022-12-18T03:12:23;0.30;99.90
6664;DHT22;58749;48.022;10.922;2022-12-18T03:15:01;0.20;99.90
6664;DHT22;58749;48.022;10.922;2022-12-18T03:17:33;0.30;99.90
6664;DHT22;58749;48.022;10.922;2022-12-18T03:20:04;0.30;99.90
6664;DHT22;58749;48.022;10.922;2022-12-18T03:22:35;0.30;99.90
6664;DHT22;58749;48.022;10.922;2022-12-18T03:25:07;0.30;99.90
6664;DHT22;58749;48.022;10.922;2022-12-18T03:27:37;0.30;99.90
6664;DHT22;58749;48.022;10.922;2022-12-18T03:30:11;0.40;99.90
6664;DHT22;58749;48.022;10.922;2022-12-18T03:32:42;0.40;99.90
6664;DHT22;58749;48.022;10.922;2022-12-18T03:35:13;0.30;99.90
6664;DHT22;58749;48.022;10.922;2022-12-18T03:37:42;0.20;99.90
6664;DHT22;58749;48.022;10.922;2022-12-18T03:40:10;0.10;99.90
6664;DHT22;58749;48.022;10.922;2022-12-18T03:42:46;0.20;99.90
6664;DHT22;58749;48.022;10.922;2022-12-18T03:45:22;0.30;99.90
6664;DHT22;58749;48.022;10.922;2022-12-18T03:47:59;0.20;99.90
6664;DHT22;58749;48.022;10.922;2022-12-18T03:50:35;0.20;99.90
6664;DHT22;58749;48.022;10.922;2022-12-18T03:53:13;0.10;99.90
6664;DHT22;58749;48.022;10.922;2022-12-18T03:55:45;0.20;99.90
6664;DHT22;58749;48.022;10.922;2022-12-18T03:58:19;0.20;99.90
6664;DHT22;58749;48.022;10.922;2022-12-18T04:00:50;0.20;99.90
6664;DHT22;58749;48.022;10.922;2022-12-18T04:03:20;0.30;99.90
6664;DHT22;58749;48.022;10.922;2022-12-18T04:05:54;0.20;99.90
6664;DHT22;58749;48.022;10.922;2022-12-18T04:08:23;0.20;99.90
6664;DHT22;58749;48.022;10.922;2022-12-18T04:10:52;0.20;99.90
6664;DHT22;58749;48.022;10.922;2022-12-18T04:13:24;0.20;99.90
6664;DHT22;58749;48.022;10.922;2022-12-18T04:15:53;0.20;99.90
6664;DHT22;58749;48.022;10.922;2022-12-18T04:18:21;0.20;99.90
6664;DHT22;58749;48.022;10.922;2022-12-18T04:20:49;0.10;99.90
6664;DHT22;58749;48.022;10.922;2022-12-18T04:23:17;0.20;99.90
6664;DHT22;58749;48.022;10.922;2022-12-18T04:25:46;0.30;99.90
6664;DHT22;58749;48.022;10.922;2022-12-18T04:28:15;0.30;99.90
6664;DHT22;58749;48.022;10.922;2022-12-18T04:30:42;0.30;99.90
6664;DHT22;58749;48.022;10.922;2022-12-18T04:33:13;0.30;99.90
6664;DHT22;58749;48.022;10.922;2022-12-18T04:35:42;0.10;99.90
6664;DHT22;58749;48.022;10.922;2022-12-18T04:38:10;0.20;99.90
6664;DHT22;58749;48.022;10.922;2022-12-18T04:40:38;0.10;99.90
6664;DHT22;58749;48.022;10.922;2022-12-18T04:43:07;0.00;99.90
6664;DHT22;58749;48.022;10.922;2022-12-18T04:45:36;0.10;99.90
6664;DHT22;58749;48.022;10.922;2022-12-18T04:48:04;0.10;99.90
6664;DHT22;58749;48.022;10.922;2022-12-18T04:50:33;0.00;99.90
6664;DHT22;58749;48.022;10.922;2022-12-18T04:53:02;0.00;99.90
6664;DHT22;58749;48.022;10.922;2022-12-18T04:55:29;0.10;99.90
6664;DHT22;58749;48.022;10.922;2022-12-18T04:57:57;0.10;99.90
6664;DHT22;58749;48.022;10.922;2022-12-18T05:00:25;0.10;99.90
6664;DHT22;58749;48.022;10.922;2022-12-18T05:02:53;0.10;99.90
6664;DHT22;58749;48.022;10.922;2022-12-18T05:05:21;0.20;99.90
6664;DHT22;58749;48.022;10.922;2022-12-18T05:07:51;0.20;99.90
6664;DHT22;58749;48.022;10.922;2022-12-18T05:10:19;0.20;99.90
6664;DHT22;58749;48.022;10.922;2022-12-18T05:12:47;0.10;99.90
6664;DHT22;58749;48.022;10.922;2022-12-18T05:15:28;0.10;99.90
6664;DHT22;58749;48.022;10.922;2022-12-18T05:17:56;0.00;99.90
6664;DHT22;58749;48.022;10.922;2022-12-18T05:20:26;0.00;99.90
6664;DHT22;58749;48.022;10.922;2022-12-18T05:22:56;0.00;99.90
6664;DHT22;58749;48.022;10.922;2022-12-18T05:25:24;0.10;99.90
6664;DHT22;58749;48.022;10.922;2022-12-18T05:27:52;0.20;99.90
6664;DHT22;58749;48.022;10.922;2022-12-18T05:30:20;0.10;99.90
6664;DHT22;58749;48.022;10.922;2022-12-18T05:32:49;0.10;99.90
6664;DHT22;58749;48.022;10.922;2022-12-18T05:35:17;0.00;99.90
6664;DHT22;58749;48.022;10.922;2022-12-18T05:37:48;0.00;99.90
6664;DHT22;58749;48.022;10.922;2022-12-18T05:40:17;0.00;99.90
6664;DHT22;58749;48.022;10.922;2022-12-18T05:42:45;0.00;99.90
6664;DHT22;58749;48.022;10.922;2022-12-18T05:45:13;-0.10;99.90
6664;DHT22;58749;48.022;10.922;2022-12-18T05:47:41;-0.10;99.90
6664;DHT22;58749;48.022;10.922;2022-12-18T05:50:09;-0.10;99.90
6664;DHT22;58749;48.022;10.922;2022-12-18T05:52:37;0.00;99.90
6664;DHT22;58749;48.022;10.922;2022-12-18T05:55:05;0.00;99.90
6664;DHT22;58749;48.022;10.922;2022-12-18T05:57:34;0.10;99.90
6664;DHT22;58749;48.022;10.922;2022-12-18T06:00:03;0.10;99.90
6664;DHT22;58749;48.022;10.922;2022-12-18T06:02:31;0.20;99.90
6664;DHT22;58749;48.022;10.922;2022-12-18T06:05:00;0.10;99.90
6664;DHT22;58749;48.022;10.922;2022-12-18T06:07:28;0.10;99.90
6664;DHT22;58749;48.022;10.922;2022-12-18T06:09:56;0.10;99.90
6664;DHT22;58749;48.022;10.922;2022-12-18T06:12:24;0.10;99.90
6664;DHT22;58749;48.022;10.922;2022-12-18T06:14:53;0.10;99.90
6664;DHT22;58749;48.022;10.922;2022-12-18T06:17:21;0.10;99.90
6664;DHT22;58749;48.022;10.922;2022-12-18T06:19:49;0.10;99.90
6664;DHT22;58749;48.022;10.922;2022-12-18T06:22:17;0.10;99.90
6664;DHT22;58749;48.022;10.922;2022-12-18T06:24:46;0.10;99.90
6664;DHT22;58749;48.022;10.922;2022-12-18T06:27:15;0.10;99.90
6664;DHT22;58749;48.022;10.922;2022-12-18T06:29:43;0.00;99.90
6664;DHT22;58749;48.022;10.922;2022-12-18T06:32:12;0.00;99.90
6664;DHT22;58749;48.022;10.922;2022-12-18T06:34:40;-0.10;99.90
6664;DHT22;58749;48.022;10.922;2022-12-18T06:37:08;-0.10;99.90
6664;DHT22;58749;48.022;10.922;2022-12-18T06:39:36;0.00;99.90
6664;DHT22;58749;48.022;10.922;2022-12-18T06:42:04;-0.10;99.90
6664;DHT22;58749;48.022;10.922;2022-12-18T06:44:32;-0.10;99.90
6664;DHT22;58749;48.022;10.922;2022-12-18T06:47:00;-0.10;99.90
6664;DHT22;58749;48.022;10.922;2022-12-18T06:49:30;0.10;99.90
6664;DHT22;58749;48.022;10.922;2022-12-18T06:51:58;0.10;99.90
6664;DHT22;58749;48.022;10.922;2022-12-18T06:54:26;0.10;99.90
6664;DHT22;58749;48.022;10.922;2022-12-18T06:56:54;0.20;99.90
6664;DHT22;58749;48.022;10.922;2022-12-18T06:59:22;0.30;99.90
6664;DHT22;58749;48.022;10.922;2022-12-18T07:01:50;0.20;99.90
6664;DHT22;58749;48.022;10.922;2022-12-18T07:04:18;0.10;99.90
6664;DHT22;58749;48.022;10.922;2022-12-18T07:06:47;0.00;99.90
6664;DHT22;58749;48.022;10.922;2022-12-18T07:09:15;0.10;99.90
6664;DHT22;58749;48.022;10.922;2022-12-18T07:11:43;0.10;99.90
6664;DHT22;58749;48.022;10.922;2022-12-18T07:14:11;0.20;99.90
6664;DHT22;58749;48.022;10.922;2022-12-18T07:16:39;0.20;99.90
6664;DHT22;58749;48.022;10.922;2022-12-18T07:19:07;0.20;99.90
6664;DHT22;58749;48.022;10.922;2022-12-18T07:21:35;0.20;99.90
6664;DHT22;58749;48.022;10.922;2022-12-18T07:24:06;0.20;99.90
6664;DHT22;58749;48.022;10.922;2022-12-18T07:26:34;0.10;99.90
6664;DHT22;58749;48.022;10.922;2022-12-18T07:29:02;0.10;99.90
6664;DHT22;58749;48.022;10.922;2022-12-18T07:31:30;0.10;99.90
6664;DHT22;58749;48.022;10.922;2022-12-18T07:33:58;0.10;99.90
6664;DHT22;58749;48.022;10.922;2022-12-18T07:36:26;0.20;99.90
6664;DHT22;58749;48.022;10.922;2022-12-18T07:38:54;0.20;99.90
6664;DHT22;58749;48.022;10.922;2022-12-18T07:41:24;0.20;99.90
6664;DHT22;58749;48.022;10.922;2022-12-18T07:43:52;0.20;99.90
6664;DHT22;58749;48.022;10.922;2022-12-18T07:46:19;0.30;99.90
6664;DHT22;58749;48.022;10.922;2022-12-18T07:48:48;0.20;99.90
6664;DHT22;58749;48.022;10.922;2022-12-18T07:51:17;0.10;99.90
6664;DHT22;58749;48.022;10.922;2022-12-18T07:53:45;0.10;99.90
6664;DHT22;58749;48.022;10.922;2022-12-18T07:56:17;0.30;99.90
6664;DHT22;58749;48.022;10.922;2022-12-18T07:58:57;0.30;99.90
6664;DHT22;58749;48.022;10.922;2022-12-18T08:01:26;0.30;99.90
6664;DHT22;58749;48.022;10.922;2022-12-18T08:03:54;0.20;99.90
6664;DHT22;58749;48.022;10.922;2022-12-18T08:06:22;0.20;99.90
6664;DHT22;58749;48.022;10.922;2022-12-18T08:08:51;0.30;99.90
6664;DHT22;58749;48.022;10.922;2022-12-18T08:11:20;0.30;99.90
6664;DHT22;58749;48.022;10.922;2022-12-18T08:13:48;0.30;99.90
6664;DHT22;58749;48.022;10.922;2022-12-18T08:16:17;0.40;99.90
6664;DHT22;58749;48.022;10.922;2022-12-18T08:18:46;0.30;99.90
6664;DHT22;58749;48.022;10.922;2022-12-18T08:21:16;0.30;99.90
6664;DHT22;58749;48.022;10.922;2022-12-18T08:23:47;0.40;99.90
6664;DHT22;58749;48.022;10.922;2022-12-18T08:26:17;0.20;99.90
6664;DHT22;58749;48.022;10.922;2022-12-18T08:28:46;0.10;99.90
6664;DHT22;58749;48.022;10.922;2022-12-18T08:31:17;0.00;99.90
6664;DHT22;58749;48.022;10.922;2022-12-18T08:33:48;0.00;99.90
6664;DHT22;58749;48.022;10.922;2022-12-18T08:36:16;0.00;99.90
6664;DHT22;58749;48.022;10.922;2022-12-18T08:38:45;0.00;99.90
6664;DHT22;58749;48.022;10.922;2022-12-18T08:41:15;0.10;99.90
6664;DHT22;58749;48.022;10.922;2022-12-18T08:43:44;0.00;99.90
6664;DHT22;58749;48.022;10.922;2022-12-18T08:46:35;0.10;99.90
6664;DHT22;58749;48.022;10.922;2022-12-18T08:49:04;0.30;99.90
6664;DHT22;58749;48.022;10.922;2022-12-18T08:51:32;0.30;99.90
6664;DHT22;58749;48.022;10.922;2022-12-18T08:54:00;0.50;99.90
6664;DHT22;58749;48.022;10.922;2022-12-18T08:56:30;0.50;99.90
6664;DHT22;58749;48.022;10.922;2022-12-18T08:58:58;0.60;99.90
6664;DHT22;58749;48.022;10.922;2022-12-18T09:01:26;0.70;99.90
6664;DHT22;58749;48.022;10.922;2022-12-18T09:03:56;0.80;99.90
6664;DHT22;58749;48.022;10.922;2022-12-18T09:06:24;0.90;99.90
6664;DHT22;58749;48.022;10.922;2022-12-18T09:08:53;1.00;99.90
6664;DHT22;58749;48.022;10.922;2022-12-18T09:11:23;1.10;99.90
6664;DHT22;58749;48.022;10.922;2022-12-18T09:13:53;1.20;99.90
6664;DHT22;58749;48.022;10.922;2022-12-18T09:16:22;1.30;99.90
6664;DHT22;58749;48.022;10.922;2022-12-18T09:18:58;1.30;99.90
6664;DHT22;58749;48.022;10.922;2022-12-18T09:21:29;1.40;99.90
6664;DHT22;58749;48.022;10.922;2022-12-18T09:23:58;1.40;99.90
6664;DHT22;58749;48.022;10.922;2022-12-18T09:26:26;1.50;99.90
6664;DHT22;58749;48.022;10.922;2022-12-18T09:28:54;1.50;99.90
6664;DHT22;58749;48.022;10.922;2022-12-18T09:31:24;1.60;99.90
6664;DHT22;58749;48.022;10.922;2022-12-18T09:33:52;1.70;99.90
6664;DHT22;58749;48.022;10.922;2022-12-18T09:36:21;1.80;99.90
6664;DHT22;58749;48.022;10.922;2022-12-18T09:38:49;1.80;99.90
6664;DHT22;58749;48.022;10.922;2022-12-18T09:41:39;1.80;99.90
6664;DHT22;58749;48.022;10.922;2022-12-18T09:44:20;1.70;99.90
6664;DHT22;58749;48.022;10.922;2022-12-18T09:46:54;1.90;99.90
6664;DHT22;58749;48.022;10.922;2022-12-18T09:49:28;1.80;99.90
6664;DHT22;58749;48.022;10.922;2022-12-18T09:52:03;1.80;99.90
6664;DHT22;58749;48.022;10.922;2022-12-18T09:54:35;1.90;99.90
6664;DHT22;58749;48.022;10.922;2022-12-18T09:57:06;1.80;99.90
6664;DHT22;58749;48.022;10.922;2022-12-18T09:59:36;1.80;99.90
6664;DHT22;58749;48.022;10.922;2022-12-18T10:02:18;1.90;99.90
6664;DHT22;58749;48.022;10.922;2022-12-18T10:04:55;1.90;99.90
6664;DHT22;58749;48.022;10.922;2022-12-18T10:07:49;1.80;99.90
6664;DHT22;58749;48.022;10.922;2022-12-18T10:10:32;1.70;99.90
6664;DHT22;58749;48.022;10.922;2022-12-18T10:13:12;1.80;99.90
6664;DHT22;58749;48.022;10.922;2022-12-18T10:15:56;1.80;99.90
6664;DHT22;58749;48.022;10.922;2022-12-18T10:18:55;1.80;99.90
6664;DHT22;58749;48.022;10.922;2022-12-18T10:21:44;1.90;99.90
6664;DHT22;58749;48.022;10.922;2022-12-18T10:24:20;1.90;99.90
6664;DHT22;58749;48.022;10.922;2022-12-18T10:26:49;2.00;99.90
6664;DHT22;58749;48.022;10.922;2022-12-18T10:29:17;2.00;99.90
6664;DHT22;58749;48.022;10.922;2022-12-18T10:31:45;2.00;99.90
6664;DHT22;58749;48.022;10.922;2022-12-18T10:34:13;2.00;99.90
6664;DHT22;58749;48.022;10.922;2022-12-18T10:36:42;2.00;99.90
6664;DHT22;58749;48.022;10.922;2022-12-18T10:39:19;1.90;99.90
6664;DHT22;58749;48.022;10.922;2022-12-18T10:41:48;2.00;99.90
6664;DHT22;58749;48.022;10.922;2022-12-18T10:44:18;2.00;99.90
6664;DHT22;58749;48.022;10.922;2022-12-18T10:46:48;2.00;99.90
6664;DHT22;58749;48.022;10.922;2022-12-18T10:49:21;2.00;99.90
6664;DHT22;58749;48.022;10.922;2022-12-18T10:51:49;2.10;99.90
6664;DHT22;58749;48.022;10.922;2022-12-18T10:54:22;2.10;99.90
6664;DHT22;58749;48.022;10.922;2022-12-18T10:56:51;2.10;99.90
6664;DHT22;58749;48.022;10.922;2022-12-18T10:59:19;2.10;99.90
6664;DHT22;58749;48.022;10.922;2022-12-18T11:01:50;2.10;99.90
6664;DHT22;58749;48.022;10.922;2022-12-18T11:04:21;2.10;99.90
6664;DHT22;58749;48.022;10.922;2022-12-18T11:06:55;2.00;99.90
6664;DHT22;58749;48.022;10.922;2022-12-18T11:09:26;2.00;99.90
6664;DHT22;58749;48.022;10.922;2022-12-18T11:11:56;2.00;99.90
6664;DHT22;58749;48.022;10.922;2022-12-18T11:14:28;2.00;99.90
6664;DHT22;58749;48.022;10.922;2022-12-18T11:16:58;2.00;99.90
6664;DHT22;58749;48.022;10.922;2022-12-18T11:19:52;2.00;99.90
6664;DHT22;58749;48.022;10.922;2022-12-18T11:22:23;2.00;99.90
6664;DHT22;58749;48.022;10.922;2022-12-18T11:24:56;2.00;99.90
6664;DHT22;58749;48.022;10.922;2022-12-18T11:27:52;2.00;99.90
6664;DHT22;58749;48.022;10.922;2022-12-18T11:30:25;2.10;99.90
6664;DHT22;58749;48.022;10.922;2022-12-18T11:33:01;2.10;99.90
6664;DHT22;58749;48.022;10.922;2022-12-18T11:35:44;2.20;99.90
6664;DHT22;58749;48.022;10.922;2022-12-18T11:38:20;2.20;99.90
6664;DHT22;58749;48.022;10.922;2022-12-18T11:40:55;2.20;99.90
6664;DHT22;58749;48.022;10.922;2022-12-18T11:43:28;2.10;99.90
6664;DHT22;58749;48.022;10.922;2022-12-18T11:46:01;2.10;99.90
6664;DHT22;58749;48.022;10.922;2022-12-18T11:48:32;2.10;99.90
6664;DHT22;58749;48.022;10.922;2022-12-18T11:51:03;2.10;99.90
6664;DHT22;58749;48.022;10.922;2022-12-18T11:53:33;2.10;99.90
6664;DHT22;58749;48.022;10.922;2022-12-18T11:56:21;2.20;99.90
6664;DHT22;58749;48.022;10.922;2022-12-18T11:58:59;2.20;99.90
6664;DHT22;58749;48.022;10.922;2022-12-18T12:01:40;2.10;99.90
6664;DHT22;58749;48.022;10.922;2022-12-18T12:04:31;2.10;99.90
6664;DHT22;58749;48.022;10.922;2022-12-18T12:07:17;2.00;99.90
6664;DHT22;58749;48.022;10.922;2022-12-18T12:09:51;2.00;99.90
6664;DHT22;58749;48.022;10.922;2022-12-18T12:12:30;2.00;99.90
6664;DHT22;58749;48.022;10.922;2022-12-18T12:15:23;2.10;99.90
6664;DHT22;58749;48.022;10.922;2022-12-18T12:17:59;2.00;99.90
6664;DHT22;58749;48.022;10.922;2022-12-18T12:20:43;2.00;99.90
6664;DHT22;58749;48.022;10.922;2022-12-18T12:23:20;2.00;99.90
6664;DHT22;58749;48.022;10.922;2022-12-18T12:25:59;2.00;99.90
6664;DHT22;58749;48.022;10.922;2022-12-18T12:28:55;2.00;99.90
6664;DHT22;58749;48.022;10.922;2022-12-18T12:31:41;2.00;99.90
6664;DHT22;58749;48.022;10.922;2022-12-18T12:34:16;1.90;99.90
6664;DHT22;58749;48.022;10.922;2022-12-18T12:36:57;1.90;99.90
6664;DHT22;58749;48.022;10.922;2022-12-18T12:39:32;1.90;99.90
6664;DHT22;58749;48.022;10.922;2022-12-18T12:42:04;1.90;99.90
6664;DHT22;58749;48.022;10.922;2022-12-18T12:44:55;1.90;99.90
6664;DHT22;58749;48.022;10.922;2022-12-18T12:47:24;1.90;99.90
6664;DHT22;58749;48.022;10.922;2022-12-18T12:49:54;1.90;99.90
6664;DHT22;58749;48.022;10.922;2022-12-18T12:52:29;1.80;99.90
6664;DHT22;58749;48.022;10.922;2022-12-18T12:54:59;1.90;99.90
6664;DHT22;58749;48.022;10.922;2022-12-18T12:57:33;1.90;99.90
6664;DHT22;58749;48.022;10.922;2022-12-18T13:00:09;1.80;99.90
6664;DHT22;58749;48.022;10.922;2022-12-18T13:02:47;1.90;99.90
6664;DHT22;58749;48.022;10.922;2022-12-18T13:05:23;1.90;99.90
6664;DHT22;58749;48.022;10.922;2022-12-18T13:07:57;1.80;99.90
6664;DHT22;58749;48.022;10.922;2022-12-18T13:10:32;1.70;99.90
6664;DHT22;58749;48.022;10.922;2022-12-18T13:13:03;1.70;99.90
6664;DHT22;58749;48.022;10.922;2022-12-18T13:15:44;1.70;99.90
6664;DHT22;58749;48.022;10.922;2022-12-18T13:18:19;1.70;99.90
6664;DHT22;58749;48.022;10.922;2022-12-18T13:20:49;1.70;99.90
6664;DHT22;58749;48.022;10.922;2022-12-18T13:23:33;1.70;99.90
6664;DHT22;58749;48.022;10.922;2022-12-18T13:26:28;1.70;99.90
6664;DHT22;58749;48.022;10.922;2022-12-18T13:28:59;1.60;99.90
6664;DHT22;58749;48.022;10.922;2022-12-18T13:34:44;1.60;99.90
6664;DHT22;58749;48.022;10.922;2022-12-18T13:37:41;1.50;99.90
6664;DHT22;58749;48.022;10.922;2022-12-18T13:43:39;1.50;99.90
6664;DHT22;58749;48.022;10.922;2022-12-18T13:46:21;1.50;99.90
6664;DHT22;58749;48.022;10.922;2022-12-18T13:48:54;1.40;99.90
6664;DHT22;58749;48.022;10.922;2022-12-18T13:51:24;1.40;99.90
6664;DHT22;58749;48.022;10.922;2022-12-18T13:53:55;1.40;99.90
6664;DHT22;58749;48.022;10.922;2022-12-18T13:56:26;1.40;99.90
6664;DHT22;58749;48.022;10.922;2022-12-18T13:59:16;1.40;99.90
6664;DHT22;58749;48.022;10.922;2022-12-18T14:01:52;1.40;99.90
6664;DHT22;58749;48.022;10.922;2022-12-18T14:04:26;1.40;99.90
6664;DHT22;58749;48.022;10.922;2022-12-18T14:07:00;1.40;99.90
6664;DHT22;58749;48.022;10.922;2022-12-18T14:09:31;1.30;99.90
6664;DHT22;58749;48.022;10.922;2022-12-18T14:12:03;1.30;99.90
6664;DHT22;58749;48.022;10.922;2022-12-18T14:14:52;1.20;99.90
6664;DHT22;58749;48.022;10.922;2022-12-18T14:17:23;1.30;99.90
6664;DHT22;58749;48.022;10.922;2022-12-18T14:19:51;1.30;99.90
6664;DHT22;58749;48.022;10.922;2022-12-18T14:22:23;1.20;99.90
6664;DHT22;58749;48.022;10.922;2022-12-18T14:25:13;1.20;99.90
6664;DHT22;58749;48.022;10.922;2022-12-18T14:27:43;1.20;99.90
6664;DHT22;58749;48.022;10.922;2022-12-18T14:30:26;1.20;99.90
6664;DHT22;58749;48.022;10.922;2022-12-18T14:33:01;1.10;99.90
6664;DHT22;58749;48.022;10.922;2022-12-18T14:35:29;1.10;99.90
6664;DHT22;58749;48.022;10.922;2022-12-18T14:38:20;1.00;99.90
6664;DHT22;58749;48.022;10.922;2022-12-18T14:40:52;1.00;99.90
6664;DHT22;58749;48.022;10.922;2022-12-18T14:43:21;1.10;99.90
6664;DHT22;58749;48.022;10.922;2022-12-18T14:45:49;1.00;99.90
6664;DHT22;58749;48.022;10.922;2022-12-18T14:48:20;1.10;99.90
6664;DHT22;58749;48.022;10.922;2022-12-18T14:50:58;1.00;99.90
6664;DHT22;58749;48.022;10.922;2022-12-18T14:53:34;1.00;99.90
6664;DHT22;58749;48.022;10.922;2022-12-18T14:56:10;1.00;99.90
6664;DHT22;58749;48.022;10.922;2022-12-18T14:58:47;1.00;99.90
6664;DHT22;58749;48.022;10.922;2022-12-18T15:01:24;0.90;99.90
6664;DHT22;58749;48.022;10.922;2022-12-18T15:03:54;1.00;99.90
6664;DHT22;58749;48.022;10.922;2022-12-18T15:06:30;0.90;99.90
6664;DHT22;58749;48.022;10.922;2022-12-18T15:09:01;0.80;99.90
6664;DHT22;58749;48.022;10.922;2022-12-18T15:11:34;0.80;99.90
6664;DHT22;58749;48.022;10.922;2022-12-18T15:14:21;0.70;99.90
6664;DHT22;58749;48.022;10.922;2022-12-18T15:16:53;0.70;99.90
6664;DHT22;58749;48.022;10.922;2022-12-18T15:19:25;0.70;99.90
6664;DHT22;58749;48.022;10.922;2022-12-18T15:21:57;0.80;99.90
6664;DHT22;58749;48.022;10.922;2022-12-18T15:24:33;0.70;99.90
6664;DHT22;58749;48.022;10.922;2022-12-18T15:27:01;0.70;99.90
6664;DHT22;58749;48.022;10.922;2022-12-18T15:29:29;0.70;99.90
6664;DHT22;58749;48.022;10.922;2022-12-18T15:32:00;0.70;99.90
6664;DHT22;58749;48.022;10.922;2022-12-18T15:34:28;0.70;99.90
6664;DHT22;58749;48.022;10.922;2022-12-18T15:36:56;0.70;99.90
6664;DHT22;58749;48.022;10.922;2022-12-18T15:39:24;0.70;99.90
6664;DHT22;58749;48.022;10.922;2022-12-18T15:41:54;0.70;99.90
6664;DHT22;58749;48.022;10.922;2022-12-18T15:44:51;0.60;99.90
6664;DHT22;58749;48.022;10.922;2022-12-18T15:47:19;0.70;99.90
6664;DHT22;58749;48.022;10.922;2022-12-18T15:49:47;0.70;99.90
6664;DHT22;58749;48.022;10.922;2022-12-18T15:52:14;0.70;99.90
6664;DHT22;58749;48.022;10.922;2022-12-18T15:54:52;0.60;99.90
6664;DHT22;58749;48.022;10.922;2022-12-18T15:57:39;0.60;99.90
6664;DHT22;58749;48.022;10.922;2022-12-18T16:00:12;0.60;99.90
6664;DHT22;58749;48.022;10.922;2022-12-18T16:02:40;0.60;99.90
6664;DHT22;58749;48.022;10.922;2022-12-18T16:05:14;0.60;99.90
6664;DHT22;58749;48.022;10.922;2022-12-18T16:07:44;0.50;99.90
6664;DHT22;58749;48.022;10.922;2022-12-18T16:10:13;0.50;99.90
6664;DHT22;58749;48.022;10.922;2022-12-18T16:12:43;0.50;99.90
6664;DHT22;58749;48.022;10.922;2022-12-18T16:15:13;0.50;99.90
6664;DHT22;58749;48.022;10.922;2022-12-18T16:17:50;0.50;99.90
6664;DHT22;58749;48.022;10.922;2022-12-18T16:20:20;0.30;99.90
6664;DHT22;58749;48.022;10.922;2022-12-18T16:22:49;0.40;99.90
6664;DHT22;58749;48.022;10.922;2022-12-18T16:25:19;0.40;99.90